createdAt,value
2022-10-01T00:04:30.562Z,9.90
2022-10-01T00:09:32.667Z,9.38
2022-10-01T00:14:35.626Z,8.45
2022-10-01T00:19:37.580Z,12.48
2022-10-01T00:24:40.691Z,8.23
2022-10-01T00:29:45.202Z,6.85
2022-10-01T00:34:48.742Z,7.15
2022-10-01T00:39:50.707Z,6.80
2022-10-01T00:44:54.157Z,8.73
2022-10-01T00:50:03.556Z,7.88
2022-10-01T00:55:15.935Z,7.35
2022-10-01T01:00:18.121Z,9.20
2022-10-01T01:05:20.375Z,9.50
2022-10-01T01:10:39.617Z,7.22
2022-10-01T01:15:49.560Z,8.45
2022-10-01T01:21:04.995Z,7.05
2022-10-01T01:26:36.316Z,7.85
2022-10-01T01:31:46.321Z,6.87
2022-10-01T01:36:55.408Z,6.40
2022-10-01T01:42:03.542Z,5.55
2022-10-01T01:47:08.967Z,5.35
2022-10-01T01:52:15.318Z,6.20
2022-10-01T01:57:19.393Z,5.10
2022-10-01T02:02:33.159Z,5.88
2022-10-01T02:07:57.110Z,17.50
2022-10-01T02:13:27.135Z,4.00
2022-10-01T02:18:48.232Z,5.57
2022-10-01T02:23:58.139Z,4.25
2022-10-01T02:29:06.390Z,4.63
2022-10-01T02:34:12.620Z,3.75
2022-10-01T02:39:16.777Z,4.22
2022-10-01T02:44:23.578Z,4.20
2022-10-01T02:49:30.686Z,4.75
2022-10-01T02:54:51.754Z,4.10
2022-10-01T03:00:15.591Z,3.40
2022-10-01T03:05:18.504Z,3.70
2022-10-01T03:10:20.739Z,3.33
2022-10-01T03:15:22.707Z,6.85
2022-10-01T03:20:24.752Z,3.42
2022-10-01T03:25:26.700Z,2.95
2022-10-01T03:30:30.237Z,3.33
2022-10-01T03:35:32.293Z,3.22
2022-10-01T03:40:37.823Z,2.90
2022-10-01T03:45:39.945Z,6.18
2022-10-01T03:50:41.969Z,2.97
2022-10-01T03:55:43.940Z,2.97
2022-10-01T04:00:47.427Z,3.35
2022-10-01T04:05:49.599Z,5.50
2022-10-01T04:10:51.546Z,3.42
2022-10-01T04:15:53.556Z,3.20
2022-10-01T04:20:55.668Z,3.50
2022-10-01T04:26:02.260Z,3.30
2022-10-01T04:31:22.991Z,4.85
2022-10-01T04:36:25.885Z,3.43
2022-10-01T04:41:30.288Z,3.65
2022-10-01T04:46:32.375Z,5.68
2022-10-01T04:51:34.596Z,5.35
2022-10-01T04:56:36.752Z,5.78
2022-10-01T05:01:39.280Z,6.57
2022-10-01T05:06:41.695Z,6.90
2022-10-01T05:11:43.746Z,7.35
2022-10-01T05:16:46.177Z,10.82
2022-10-01T05:21:48.144Z,8.13
2022-10-01T05:26:50.227Z,6.57
2022-10-01T05:31:52.402Z,8.63
2022-10-01T05:36:54.772Z,8.77
2022-10-01T05:41:57.702Z,14.95
2022-10-01T05:46:59.677Z,11.73
2022-10-01T05:52:01.787Z,9.88
2022-10-01T05:57:05.068Z,14.15
2022-10-01T06:02:09.540Z,12.20
2022-10-01T06:07:11.720Z,13.57
2022-10-01T06:12:17.714Z,16.15
2022-10-01T06:17:21.855Z,15.55
2022-10-01T06:22:25.245Z,16.38
2022-10-01T06:27:27.204Z,20.35
2022-10-01T06:32:34.084Z,11.55
2022-10-01T06:37:38.352Z,12.02
2022-10-01T06:42:40.407Z,19.52
2022-10-01T06:47:42.438Z,14.75
2022-10-01T06:52:50.466Z,14.15
2022-10-01T06:58:00.416Z,14.38
2022-10-01T07:03:06.388Z,13.95
2022-10-01T07:08:08.701Z,14.27
2022-10-01T07:13:20.793Z,12.13
2022-10-01T07:18:23.559Z,13.73
2022-10-01T07:23:25.662Z,13.40
2022-10-01T07:28:28.103Z,13.55
2022-10-01T07:33:30.470Z,11.82
2022-10-01T07:38:35.925Z,12.20
2022-10-01T07:43:39.334Z,6.50
2022-10-01T07:48:42.049Z,11.02
2022-10-01T07:53:44.124Z,6.75
2022-10-01T07:58:46.138Z,12.27
2022-10-01T08:03:53.486Z,12.95
2022-10-01T08:08:55.571Z,12.88
2022-10-01T08:13:57.624Z,15.93
2022-10-01T08:18:59.949Z,14.70
2022-10-01T08:24:03.236Z,13.52
2022-10-01T08:29:05.237Z,13.70
2022-10-01T08:34:07.375Z,12.95
2022-10-01T08:39:09.436Z,10.55
2022-10-01T08:44:19.690Z,10.18
2022-10-01T08:49:41.534Z,7.85
2022-10-01T08:54:51.411Z,5.35
2022-10-01T08:59:57.640Z,5.20
2022-10-01T09:05:03.196Z,7.30
2022-10-01T09:10:43.743Z,8.65
2022-10-01T09:16:13.669Z,11.02
2022-10-01T09:21:24.459Z,12.40
2022-10-01T09:26:26.456Z,12.55
2022-10-01T09:31:41.093Z,7.47
2022-10-01T09:37:08.225Z,11.15
2022-10-01T09:42:10.467Z,13.73
2022-10-01T09:47:22.193Z,8.95
2022-10-01T09:52:30.264Z,8.85
2022-10-01T09:57:40.776Z,11.73
2022-10-01T10:02:49.202Z,12.03
2022-10-01T10:07:58.519Z,7.28
2022-10-01T10:13:21.937Z,9.10
2022-10-01T10:18:48.587Z,18.48
2022-10-01T10:24:01.908Z,12.65
2022-10-01T10:29:07.087Z,6.53
2022-10-01T10:34:38.367Z,7.47
2022-10-01T10:39:43.127Z,12.70
2022-10-01T10:44:49.243Z,12.40
2022-10-01T10:49:55.608Z,9.40
2022-10-01T10:54:59.389Z,9.60
2022-10-01T11:00:16.398Z,11.93
2022-10-01T11:05:21.725Z,11.55
2022-10-01T11:10:34.466Z,6.93
2022-10-01T11:15:51.486Z,13.13
2022-10-01T11:21:11.896Z,7.68
2022-10-01T11:26:23.006Z,7.97
2022-10-01T11:31:30.859Z,9.40
2022-10-01T11:36:45.292Z,7.45
2022-10-01T11:41:54.723Z,8.70
2022-10-01T11:47:08.968Z,9.10
2022-10-01T11:52:18.123Z,9.90
2022-10-01T11:57:39.304Z,9.43
2022-10-01T12:02:58.873Z,6.97
2022-10-01T12:08:09.224Z,5.57
2022-10-01T12:13:32.559Z,6.40
2022-10-01T12:18:40.689Z,5.20
2022-10-01T12:23:50.986Z,3.83
2022-10-01T12:29:01.777Z,7.78
2022-10-01T12:39:38.916Z,7.03
2022-10-01T12:44:49.396Z,6.63
2022-10-01T12:50:00.129Z,11.02
2022-10-01T13:00:16.711Z,7.50
2022-10-01T13:05:30.590Z,10.07
2022-10-01T13:10:48.664Z,7.00
2022-10-01T13:16:22.632Z,8.60
2022-10-01T13:21:32.625Z,7.35
2022-10-01T13:26:43.461Z,6.55
2022-10-01T13:36:57.052Z,10.93
2022-10-01T13:41:59.118Z,5.60
2022-10-01T13:47:07.167Z,7.22
2022-10-01T13:52:19.934Z,6.93
2022-10-01T13:57:35.819Z,6.03
2022-10-01T14:02:41.549Z,5.22
2022-10-01T14:07:46.221Z,5.32
2022-10-01T14:13:07.293Z,17.23
2022-10-01T14:18:16.987Z,6.13
2022-10-01T14:23:33.572Z,5.53
2022-10-01T14:28:48.563Z,7.63
2022-10-01T14:33:50.595Z,6.90
2022-10-01T14:39:03.881Z,4.65
2022-10-01T14:44:42.040Z,8.02
2022-10-01T14:49:44.019Z,5.32
2022-10-01T14:54:51.344Z,3.95
2022-10-01T14:59:54.057Z,4.32
2022-10-01T15:04:57.180Z,6.75
2022-10-01T15:10:07.227Z,5.25
2022-10-01T15:15:32.922Z,7.15
2022-10-01T15:20:35.120Z,5.97
2022-10-01T15:25:37.172Z,7.10
2022-10-01T15:30:39.287Z,9.82
2022-10-01T15:35:42.393Z,5.55
2022-10-01T15:40:44.644Z,8.55
2022-10-01T15:46:09.339Z,5.68
2022-10-01T15:51:20.183Z,6.40
2022-10-01T15:56:24.121Z,9.15
2022-10-01T16:01:29.362Z,8.23
2022-10-01T16:06:38.250Z,15.63
2022-10-01T16:11:58.911Z,11.55
2022-10-01T16:17:16.305Z,7.45
2022-10-01T16:22:22.614Z,12.80
2022-10-01T16:27:28.073Z,8.07
2022-10-01T16:32:30.110Z,12.82
2022-10-01T16:37:32.077Z,6.93
2022-10-01T16:42:37.023Z,8.32
2022-10-01T16:47:41.732Z,7.20
2022-10-01T16:52:44.378Z,7.45
2022-10-01T16:57:46.399Z,6.57
2022-10-01T17:02:48.547Z,10.50
2022-10-01T17:07:50.844Z,5.78
2022-10-01T17:12:54.663Z,6.57
2022-10-01T17:17:58.395Z,7.93
2022-10-01T17:23:00.515Z,8.10
2022-10-01T17:28:06.193Z,9.90
2022-10-01T17:33:09.705Z,10.82
2022-10-01T17:38:12.931Z,13.45
2022-10-01T17:43:16.913Z,8.95
2022-10-01T17:48:21.864Z,6.70
2022-10-01T17:53:24.171Z,7.75
2022-10-01T17:58:26.750Z,10.68
2022-10-01T18:03:28.829Z,9.55
2022-10-01T18:08:51.180Z,13.05
2022-10-01T18:13:54.904Z,10.60
2022-10-01T18:24:21.101Z,14.75
2022-10-01T18:29:25.407Z,10.88
2022-10-01T18:34:52.240Z,9.48
2022-10-01T18:40:00.102Z,15.18
2022-10-01T18:45:05.160Z,12.82
2022-10-01T18:50:44.672Z,25.42
2022-10-01T18:55:58.800Z,17.90
2022-10-01T19:01:15.774Z,14.38
2022-10-01T19:06:40.523Z,13.82
2022-10-01T19:12:01.316Z,12.13
2022-10-01T19:17:09.280Z,16.37
2022-10-01T19:22:35.191Z,15.85
2022-10-01T19:28:01.552Z,10.98
2022-10-01T19:33:09.643Z,12.13
2022-10-01T19:38:35.233Z,13.20
2022-10-01T19:43:42.135Z,9.93
2022-10-01T19:49:31.266Z,13.20
2022-10-01T19:54:38.145Z,10.60
2022-10-01T19:59:40.670Z,7.55
2022-10-01T20:05:08.649Z,9.63
2022-10-01T20:10:23.297Z,20.05
2022-10-01T20:15:55.167Z,11.30
2022-10-01T20:21:25.164Z,18.70
2022-10-01T20:26:48.672Z,12.23
2022-10-01T20:31:56.575Z,15.73
2022-10-01T20:37:16.221Z,14.63
2022-10-01T20:42:25.873Z,12.70
2022-10-01T20:47:32.332Z,14.63
2022-10-01T20:52:52.790Z,14.00
2022-10-01T20:57:59.955Z,14.68
2022-10-01T21:03:44.133Z,12.73
2022-10-01T21:08:52.304Z,16.90
2022-10-01T21:14:16.332Z,14.80
2022-10-01T21:19:32.339Z,16.17
2022-10-01T21:24:46.287Z,12.35
2022-10-01T21:30:03.910Z,19.42
2022-10-01T21:35:41.894Z,23.27
2022-10-01T21:41:05.608Z,15.32
2022-10-01T21:46:07.564Z,10.35
2022-10-01T21:51:37.324Z,14.13
2022-10-01T21:56:52.996Z,21.15
2022-10-01T22:02:34.685Z,15.18
2022-10-01T22:07:51.167Z,14.93
2022-10-01T22:12:58.758Z,16.52
2022-10-01T22:18:03.876Z,18.05
2022-10-01T22:23:09.991Z,14.57
2022-10-01T22:28:19.751Z,16.52
2022-10-01T22:33:27.728Z,16.23
2022-10-01T22:38:45.539Z,16.60
2022-10-01T22:43:47.573Z,18.38
2022-10-01T22:49:11.136Z,16.02
2022-10-01T22:54:22.158Z,15.02
2022-10-01T22:59:36.191Z,21.23
2022-10-01T23:04:59.506Z,18.67
2022-10-01T23:10:15.227Z,12.95
2022-10-01T23:15:46.704Z,19.17
2022-10-01T23:21:00.416Z,21.55
2022-10-01T23:26:53.791Z,13.40
2022-10-01T23:32:02.689Z,15.65
2022-10-01T23:37:16.891Z,17.33
2022-10-01T23:42:31.259Z,16.02
2022-10-01T23:47:52.869Z,18.50
2022-10-01T23:58:05.504Z,18.58
